createdAt,value
2018-07-30T00:02:04.082Z,101696.09
2018-07-30T00:04:31.793Z,101689.97
2018-07-30T00:06:59.608Z,101677.98
2018-07-30T00:09:27.352Z,101679.91
2018-07-30T00:11:55.108Z,101680.87
2018-07-30T00:14:22.926Z,101676.34
2018-07-30T00:16:50.649Z,101668.88
2018-07-30T00:19:18.389Z,101661.98
2018-07-30T00:21:46.190Z,101658.79
2018-07-30T00:24:13.913Z,101651.77
2018-07-30T00:26:41.673Z,101650.42
2018-07-30T00:29:09.419Z,101651.52
2018-07-30T00:31:37.148Z,101644.78
2018-07-30T00:34:04.906Z,101642.57
2018-07-30T00:36:32.628Z,101639.87
2018-07-30T00:39:00.401Z,101635.73
2018-07-30T00:41:28.201Z,101633.53
2018-07-30T00:43:55.990Z,101638.53
2018-07-30T00:46:23.788Z,101646.36
2018-07-30T00:48:51.541Z,101650.73
2018-07-30T00:51:19.296Z,101652.69
2018-07-30T00:53:47.065Z,101656.12
2018-07-30T00:56:14.834Z,101656.50
2018-07-30T00:58:42.568Z,101668.63
2018-07-30T01:01:10.335Z,101668.75
2018-07-30T01:03:38.080Z,101672.02
2018-07-30T01:06:05.845Z,101671.77
2018-07-30T01:08:33.584Z,101666.00
2018-07-30T01:11:01.346Z,101671.87
2018-07-30T01:13:29.115Z,101676.91
2018-07-30T01:15:56.831Z,101682.39
2018-07-30T01:18:24.538Z,101684.12
2018-07-30T01:20:52.790Z,101679.92
2018-07-30T01:23:20.534Z,101685.30
2018-07-30T01:25:48.364Z,101690.69
2018-07-30T01:28:16.112Z,101691.65
2018-07-30T01:30:43.825Z,101690.91
2018-07-30T01:33:11.620Z,101688.45
2018-07-30T01:35:39.369Z,101678.64
2018-07-30T01:38:07.128Z,101685.98
2018-07-30T01:40:34.870Z,101695.41
2018-07-30T01:43:02.655Z,101706.66
2018-07-30T01:45:30.444Z,101714.34
2018-07-30T01:47:58.218Z,101727.33
2018-07-30T01:50:25.952Z,101747.05
2018-07-30T01:52:53.702Z,101749.34
2018-07-30T01:55:21.476Z,101757.42
2018-07-30T01:57:49.265Z,101773.10
2018-07-30T02:00:17.011Z,101784.48
2018-07-30T02:02:44.734Z,101812.27
2018-07-30T02:05:12.533Z,101822.17
2018-07-30T02:07:41.457Z,101807.58
2018-07-30T02:10:10.466Z,101777.19
2018-07-30T02:12:38.532Z,101737.16
2018-07-30T02:15:06.626Z,101748.22
2018-07-30T02:17:34.384Z,101753.13
2018-07-30T02:20:02.157Z,101747.91
2018-07-30T02:22:30.122Z,101728.36
2018-07-30T02:24:57.861Z,101716.50
2018-07-30T02:27:25.676Z,101707.94
2018-07-30T02:29:53.473Z,101710.89
2018-07-30T02:32:21.216Z,101713.36
2018-07-30T02:34:48.956Z,101707.52
2018-07-30T02:37:16.832Z,101702.91
2018-07-30T02:39:44.551Z,101699.22
2018-07-30T02:42:12.371Z,101700.23
2018-07-30T02:44:40.241Z,101694.63
2018-07-30T02:47:08.018Z,101688.14
2018-07-30T02:49:35.766Z,101692.56
2018-07-30T02:52:03.567Z,101691.86
2018-07-30T02:54:31.285Z,101682.09
2018-07-30T02:56:59.028Z,101676.96
2018-07-30T02:59:26.772Z,101685.93
2018-07-30T03:01:54.573Z,101683.88
2018-07-30T03:04:22.370Z,101684.25
2018-07-30T03:06:50.193Z,101686.81
2018-07-30T03:09:18.086Z,101682.29
2018-07-30T03:11:45.841Z,101675.45
2018-07-30T03:14:13.573Z,101680.23
2018-07-30T03:16:41.396Z,101666.98
2018-07-30T03:19:09.236Z,101674.20
2018-07-30T03:21:36.975Z,101668.44
2018-07-30T03:24:04.841Z,101660.00
2018-07-30T03:26:32.625Z,101660.10
2018-07-30T03:29:00.389Z,101659.85
2018-07-30T03:31:28.242Z,101658.50
2018-07-30T03:33:55.985Z,101662.80
2018-07-30T03:36:23.783Z,101658.80
2018-07-30T03:38:51.575Z,101657.66
2018-07-30T03:41:19.330Z,101660.73
2018-07-30T03:43:47.242Z,101662.08
2018-07-30T03:46:15.040Z,101651.69
2018-07-30T03:48:42.770Z,101639.17
2018-07-30T03:51:10.611Z,101628.78
2018-07-30T03:53:38.357Z,101630.61
2018-07-30T03:56:06.215Z,101631.47
2018-07-30T03:58:34.019Z,101631.72
2018-07-30T04:01:01.795Z,101643.84
2018-07-30T04:03:29.594Z,101653.95
2018-07-30T04:05:57.427Z,101663.76
2018-07-30T04:08:25.173Z,101658.72
2018-07-30T04:10:52.900Z,101646.73
2018-07-30T04:13:20.673Z,101647.50
2018-07-30T04:15:48.394Z,101646.55
2018-07-30T04:18:16.156Z,101646.07
2018-07-30T04:20:43.920Z,101652.97
2018-07-30T04:23:11.719Z,101662.45
2018-07-30T04:25:39.453Z,101663.56
2018-07-30T04:28:07.239Z,101660.73
2018-07-30T04:30:35.014Z,101655.13
2018-07-30T04:33:02.813Z,101654.50
2018-07-30T04:35:30.613Z,101647.52
2018-07-30T04:37:58.366Z,101636.97
2018-07-30T04:40:26.127Z,101642.12
2018-07-30T04:42:53.964Z,101635.86
2018-07-30T04:45:21.719Z,101638.42
2018-07-30T04:47:49.481Z,101632.44
2018-07-30T04:50:17.294Z,101635.86
2018-07-30T04:52:45.065Z,101639.67
2018-07-30T04:55:12.796Z,101661.39
2018-07-30T04:57:40.616Z,101665.95
2018-07-30T05:00:08.834Z,101666.20
2018-07-30T05:02:36.636Z,101677.95
2018-07-30T05:05:05.615Z,101674.67
2018-07-30T05:07:33.382Z,101677.64
2018-07-30T05:10:01.112Z,101672.62
2018-07-30T05:12:28.970Z,101684.77
2018-07-30T05:14:57.801Z,101694.48
2018-07-30T05:17:25.548Z,101702.22
2018-07-30T05:19:53.324Z,101704.16
2018-07-30T05:22:21.083Z,101706.99
2018-07-30T05:24:48.822Z,101704.78
2018-07-30T05:27:16.633Z,101708.58
2018-07-30T05:29:44.373Z,101720.39
2018-07-30T05:32:12.115Z,101715.86
2018-07-30T05:34:39.884Z,101714.98
2018-07-30T05:37:07.677Z,101708.11
2018-07-30T05:39:35.464Z,101711.43
2018-07-30T05:42:03.272Z,101716.20
2018-07-30T05:44:31.155Z,101720.15
2018-07-30T05:46:59.000Z,101728.73
2018-07-30T05:49:26.755Z,101721.73
2018-07-30T05:51:54.519Z,101728.61
2018-07-30T05:54:22.365Z,101732.80
2018-07-30T05:56:50.124Z,101738.08
2018-07-30T05:59:17.915Z,101749.74
2018-07-30T06:01:45.752Z,101750.61
2018-07-30T06:04:13.533Z,101755.62
2018-07-30T06:06:41.382Z,101761.41
2018-07-30T06:09:10.080Z,101757.08
2018-07-30T06:11:39.350Z,101746.91
2018-07-30T06:14:07.950Z,101741.48
2018-07-30T06:16:35.736Z,101724.66
2018-07-30T06:19:03.601Z,101717.05
2018-07-30T06:21:31.382Z,101714.59
2018-07-30T06:23:59.143Z,101696.91
2018-07-30T06:26:26.912Z,101692.24
2018-07-30T06:28:54.690Z,101682.80
2018-07-30T06:31:22.471Z,101665.50
2018-07-30T06:33:50.224Z,101671.89
2018-07-30T06:36:18.126Z,101678.26
2018-07-30T06:38:46.404Z,101667.36
2018-07-30T06:41:14.120Z,101689.09
2018-07-30T06:43:41.869Z,101699.39
2018-07-30T06:46:09.909Z,101698.91
2018-07-30T06:48:37.673Z,101702.47
2018-07-30T06:51:05.852Z,101702.94
2018-07-30T06:53:33.558Z,101701.59
2018-07-30T06:58:24.013Z,101686.38
2018-07-30T07:00:51.726Z,101680.61
2018-07-30T07:03:19.479Z,101669.44
2018-07-30T07:05:47.247Z,101675.56
2018-07-30T07:08:14.982Z,101675.83
2018-07-30T07:10:42.740Z,101680.98
2018-07-30T07:13:10.512Z,101685.78
2018-07-30T07:15:38.273Z,101685.77
2018-07-30T07:18:06.072Z,101690.80
2018-07-30T07:20:33.890Z,101685.51
2018-07-30T07:23:01.672Z,101673.63
2018-07-30T07:25:29.424Z,101683.07
2018-07-30T07:27:57.209Z,101695.97
2018-07-30T07:30:24.988Z,101706.14
2018-07-30T07:32:52.714Z,101706.64
2018-07-30T07:35:20.533Z,101708.72
2018-07-30T07:37:54.994Z,101707.87
2018-07-30T07:40:22.970Z,101700.50
2018-07-30T07:42:50.729Z,101694.71
2018-07-30T07:45:18.485Z,101711.67
2018-07-30T07:47:46.230Z,101722.61
2018-07-30T07:50:14.095Z,101722.70
2018-07-30T07:52:41.784Z,101730.94
2018-07-30T07:55:09.524Z,101718.16
2018-07-30T07:57:37.297Z,101722.45
2018-07-30T08:00:07.674Z,101724.07
2018-07-30T08:02:35.456Z,101724.72
2018-07-30T08:05:03.408Z,101717.45
2018-07-30T08:07:31.138Z,101703.20
2018-07-30T08:09:58.855Z,101701.44
2018-07-30T08:12:26.611Z,101715.03
2018-07-30T08:14:54.369Z,101722.56
2018-07-30T08:17:22.147Z,101709.53
2018-07-30T08:19:49.950Z,101708.64
2018-07-30T08:22:17.802Z,101692.88
2018-07-30T08:24:45.564Z,101695.97
2018-07-30T08:27:13.369Z,101693.81
2018-07-30T08:29:41.146Z,101692.17
2018-07-30T08:32:09.297Z,101690.98
2018-07-30T08:34:37.099Z,101686.39
2018-07-30T08:37:04.938Z,101681.03
2018-07-30T08:39:32.698Z,101688.64
2018-07-30T08:42:00.466Z,101696.67
2018-07-30T08:44:28.286Z,101696.69
2018-07-30T08:46:56.005Z,101686.97
2018-07-30T08:49:23.816Z,101688.32
2018-07-30T08:51:51.608Z,101693.08
2018-07-30T08:54:19.364Z,101693.86
2018-07-30T08:56:47.167Z,101684.63
2018-07-30T08:59:15.028Z,101695.27
2018-07-30T09:01:42.765Z,101693.72
2018-07-30T09:04:11.322Z,101700.05
2018-07-30T09:06:39.064Z,101708.27
2018-07-30T09:09:09.166Z,101712.41
2018-07-30T09:11:37.308Z,101718.21
2018-07-30T09:14:05.236Z,101726.28
2018-07-30T09:16:33.061Z,101731.00
2018-07-30T09:19:00.814Z,101736.95
2018-07-30T09:21:28.595Z,101741.77
2018-07-30T09:23:56.316Z,101741.53
2018-07-30T09:26:24.062Z,101735.60
2018-07-30T09:28:51.996Z,101742.39
2018-07-30T09:31:19.787Z,101743.22
2018-07-30T09:33:47.552Z,101748.36
2018-07-30T09:36:20.360Z,101742.92
2018-07-30T09:38:48.170Z,101751.77
2018-07-30T09:41:15.916Z,101753.53
2018-07-30T09:43:43.669Z,101740.19
2018-07-30T09:46:11.428Z,101745.32
2018-07-30T09:48:39.280Z,101737.41
2018-07-30T09:51:08.000Z,101746.64
2018-07-30T09:53:35.820Z,101748.41
2018-07-30T09:56:03.668Z,101747.33
2018-07-30T09:58:31.385Z,101754.42
2018-07-30T10:01:05.908Z,101751.05
2018-07-30T10:03:34.487Z,101754.90
2018-07-30T10:06:02.381Z,101754.28
2018-07-30T10:08:30.230Z,101753.77
2018-07-30T10:10:57.977Z,101755.45
2018-07-30T10:13:26.847Z,101750.73
2018-07-30T10:15:54.861Z,101755.51
2018-07-30T10:18:22.765Z,101760.81
2018-07-30T10:20:50.604Z,101756.92
2018-07-30T10:23:18.398Z,101752.13
2018-07-30T10:25:46.150Z,101753.48
2018-07-30T10:28:13.880Z,101753.54
2018-07-30T10:30:41.744Z,101753.78
2018-07-30T10:33:09.747Z,101745.41
2018-07-30T10:35:37.470Z,101747.87
2018-07-30T10:38:05.310Z,101747.02
2018-07-30T10:40:33.037Z,101757.44
2018-07-30T10:43:00.844Z,101759.96
2018-07-30T10:45:28.599Z,101751.64
2018-07-30T10:47:56.373Z,101760.79
2018-07-30T10:50:24.137Z,101755.92
2018-07-30T10:52:51.991Z,101757.47
2018-07-30T10:55:19.792Z,101759.53
2018-07-30T10:57:47.588Z,101749.09
2018-07-30T11:00:15.357Z,101754.42
2018-07-30T11:02:43.124Z,101759.72
2018-07-30T11:05:10.814Z,101755.83
2018-07-30T11:07:38.611Z,101757.23
2018-07-30T11:10:06.417Z,101772.41
2018-07-30T11:12:34.269Z,101770.56
2018-07-30T11:15:02.023Z,101769.79
2018-07-30T11:17:30.357Z,101771.29
2018-07-30T11:19:58.120Z,101776.64
2018-07-30T11:22:25.856Z,101765.34
2018-07-30T11:24:53.604Z,101772.64
2018-07-30T11:27:21.353Z,101772.69
2018-07-30T11:29:49.087Z,101767.62
2018-07-30T11:32:16.878Z,101771.38
2018-07-30T11:34:44.621Z,101770.77
2018-07-30T11:37:12.329Z,101775.41
2018-07-30T11:39:40.205Z,101770.59
2018-07-30T11:42:07.938Z,101770.99
2018-07-30T11:44:35.684Z,101771.69
2018-07-30T11:47:03.421Z,101770.13
2018-07-30T11:49:31.253Z,101772.22
2018-07-30T11:51:59.018Z,101770.50
2018-07-30T11:54:26.824Z,101766.39
2018-07-30T11:56:54.627Z,101767.21
2018-07-30T11:59:22.363Z,101761.58
2018-07-30T12:01:50.241Z,101747.28
2018-07-30T12:04:17.969Z,101745.18
2018-07-30T12:06:45.737Z,101744.17
2018-07-30T12:09:13.497Z,101744.48
2018-07-30T12:11:41.207Z,101749.52
2018-07-30T12:14:08.944Z,101749.19
2018-07-30T12:16:36.696Z,101745.50
2018-07-30T12:19:04.466Z,101740.34
2018-07-30T12:21:32.238Z,101740.09
2018-07-30T12:23:59.990Z,101737.23
2018-07-30T12:26:28.058Z,101731.77
2018-07-30T12:28:55.789Z,101736.55
2018-07-30T12:31:23.578Z,101730.23
2018-07-30T12:33:51.348Z,101724.75
2018-07-30T12:36:19.130Z,101731.08
2018-07-30T12:38:46.897Z,101730.04
2018-07-30T12:41:14.657Z,101733.27
2018-07-30T12:43:42.452Z,101730.25
2018-07-30T12:46:10.281Z,101730.22
2018-07-30T12:48:38.013Z,101715.69
2018-07-30T12:51:05.741Z,101719.08
2018-07-30T12:53:33.624Z,101725.81
2018-07-30T12:56:01.357Z,101716.30
2018-07-30T12:58:29.075Z,101720.14
2018-07-30T13:00:56.820Z,101720.14
2018-07-30T13:03:24.560Z,101723.69
2018-07-30T13:05:52.353Z,101717.52
2018-07-30T13:08:20.083Z,101720.30
2018-07-30T13:10:47.832Z,101707.42
2018-07-30T13:13:15.608Z,101712.80
2018-07-30T13:15:43.361Z,101712.95
2018-07-30T13:18:11.104Z,101713.08
2018-07-30T13:20:38.880Z,101719.33
2018-07-30T13:23:06.686Z,101722.26
2018-07-30T13:25:34.786Z,101712.13
2018-07-30T13:28:02.625Z,101717.13
2018-07-30T13:30:30.460Z,101715.73
2018-07-30T13:32:58.200Z,101705.61
2018-07-30T13:35:25.974Z,101709.22
2018-07-30T13:37:53.785Z,101711.20
2018-07-30T13:40:21.610Z,101712.30
2018-07-30T13:42:49.501Z,101706.65
2018-07-30T13:45:17.250Z,101721.05
2018-07-30T13:47:45.009Z,101710.97
2018-07-30T13:50:12.801Z,101708.38
2018-07-30T13:52:40.548Z,101716.80
2018-07-30T13:55:08.840Z,101718.36
2018-07-30T13:57:36.628Z,101716.23
2018-07-30T14:00:06.501Z,101704.27
2018-07-30T14:02:34.262Z,101711.64
2018-07-30T14:05:02.036Z,101715.16
2018-07-30T14:07:29.767Z,101714.48
2018-07-30T14:09:57.512Z,101713.62
2018-07-30T14:12:25.319Z,101713.75
2018-07-30T14:14:53.075Z,101713.86
2018-07-30T14:17:20.831Z,101712.33
2018-07-30T14:19:48.658Z,101707.34
2018-07-30T14:22:16.832Z,101706.86
2018-07-30T14:24:44.576Z,101709.09
2018-07-30T14:27:12.316Z,101705.20
2018-07-30T14:29:40.082Z,101705.34
2018-07-30T14:32:07.955Z,101706.05
2018-07-30T14:34:35.720Z,101707.79
2018-07-30T14:37:03.532Z,101702.52
2018-07-30T14:39:31.282Z,101703.89
2018-07-30T14:41:59.101Z,101703.73
2018-07-30T14:44:26.835Z,101699.09
2018-07-30T14:46:54.572Z,101698.77
2018-07-30T14:49:29.052Z,101697.09
2018-07-30T14:51:56.983Z,101693.14
2018-07-30T14:54:24.877Z,101693.33
2018-07-30T14:56:52.630Z,101697.78
2018-07-30T14:59:20.399Z,101696.08
2018-07-30T15:01:48.107Z,101690.56
2018-07-30T15:04:15.876Z,101689.20
2018-07-30T15:06:43.705Z,101689.70
2018-07-30T15:09:13.044Z,101684.73
2018-07-30T15:11:40.805Z,101686.73
2018-07-30T15:14:08.632Z,101681.58
2018-07-30T15:16:37.057Z,101684.11
2018-07-30T15:19:05.288Z,101685.95
2018-07-30T15:21:33.065Z,101686.59
2018-07-30T15:24:00.949Z,101682.32
2018-07-30T15:26:28.656Z,101678.34
2018-07-30T15:28:56.486Z,101687.13
2018-07-30T15:31:24.285Z,101687.06
2018-07-30T15:33:52.085Z,101694.38
2018-07-30T15:36:19.963Z,101694.17
2018-07-30T15:38:47.714Z,101689.34
2018-07-30T15:41:15.615Z,101692.64
2018-07-30T15:43:43.464Z,101687.66
2018-07-30T15:46:11.264Z,101695.28
2018-07-30T15:48:39.048Z,101703.60
2018-07-30T15:51:07.012Z,101695.57
2018-07-30T15:53:34.730Z,101697.86
2018-07-30T15:56:02.456Z,101692.00
2018-07-30T15:58:30.208Z,101688.95
2018-07-30T16:00:57.984Z,101691.33
2018-07-30T16:03:25.794Z,101692.73
2018-07-30T16:05:53.615Z,101683.28
2018-07-30T16:08:21.471Z,101682.45
2018-07-30T16:10:49.270Z,101679.91
2018-07-30T16:13:17.061Z,101690.58
2018-07-30T16:15:44.840Z,101680.30
2018-07-30T16:18:12.564Z,101687.05
2018-07-30T16:20:40.328Z,101681.52
2018-07-30T16:23:08.184Z,101689.13
2018-07-30T16:25:35.852Z,101691.61
2018-07-30T16:28:03.656Z,101685.79
2018-07-30T16:30:31.463Z,101678.27
2018-07-30T16:32:59.176Z,101681.16
2018-07-30T16:35:26.946Z,101681.91
2018-07-30T16:37:54.696Z,101680.60
2018-07-30T16:40:22.431Z,101686.84
2018-07-30T16:42:50.284Z,101687.09
2018-07-30T16:45:18.101Z,101679.94
2018-07-30T16:47:45.847Z,101680.73
2018-07-30T16:50:13.587Z,101680.41
2018-07-30T16:52:41.293Z,101674.44
2018-07-30T16:55:09.054Z,101680.93
2018-07-30T16:57:36.784Z,101682.71
2018-07-30T17:00:07.024Z,101685.23
2018-07-30T17:02:34.896Z,101683.82
2018-07-30T17:05:02.709Z,101680.91
2018-07-30T17:07:30.419Z,101676.27
2018-07-30T17:09:58.195Z,101682.34
2018-07-30T17:12:25.949Z,101687.78
2018-07-30T17:14:53.704Z,101689.45
2018-07-30T17:17:21.473Z,101697.41
2018-07-30T17:19:49.216Z,101691.77
2018-07-30T17:22:16.955Z,101705.23
2018-07-30T17:24:45.393Z,101708.63
2018-07-30T17:27:13.089Z,101703.02
2018-07-30T17:29:40.833Z,101711.34
2018-07-30T17:32:08.614Z,101711.44
2018-07-30T17:34:36.373Z,101708.89
2018-07-30T17:37:04.177Z,101706.97
2018-07-30T17:39:31.981Z,101708.95
2018-07-30T17:41:59.773Z,101716.22
2018-07-30T17:44:27.483Z,101714.02
2018-07-30T17:46:55.387Z,101714.95
2018-07-30T17:49:23.117Z,101722.70
2018-07-30T17:51:50.877Z,101717.98
2018-07-30T17:54:18.640Z,101718.94
2018-07-30T17:56:46.364Z,101716.24
2018-07-30T17:59:14.060Z,101709.97
2018-07-30T18:01:41.849Z,101718.41
2018-07-30T18:04:09.584Z,101724.64
2018-07-30T18:06:37.348Z,101731.42
2018-07-30T18:09:07.215Z,101724.59
2018-07-30T18:11:34.993Z,101726.66
2018-07-30T18:14:02.777Z,101730.84
2018-07-30T18:16:30.554Z,101737.70
2018-07-30T18:18:58.295Z,101738.27
2018-07-30T18:21:26.096Z,101740.20
2018-07-30T18:23:54.797Z,101743.11
2018-07-30T18:26:22.588Z,101736.36
2018-07-30T18:28:50.373Z,101746.30
2018-07-30T18:31:18.174Z,101747.77
2018-07-30T18:33:45.980Z,101755.08
2018-07-30T18:36:13.752Z,101757.33
2018-07-30T18:38:41.472Z,101756.78
2018-07-30T18:41:09.213Z,101755.82
2018-07-30T18:43:36.959Z,101764.02
2018-07-30T18:46:04.756Z,101769.72
2018-07-30T18:48:32.462Z,101765.55
2018-07-30T18:51:00.188Z,101769.15
2018-07-30T18:53:27.983Z,101765.27
2018-07-30T18:55:55.695Z,101763.84
2018-07-30T18:58:23.404Z,101763.53
2018-07-30T19:00:51.156Z,101763.55
2018-07-30T19:03:18.928Z,101768.05
2018-07-30T19:05:46.678Z,101772.77
2018-07-30T19:08:14.421Z,101779.92
2018-07-30T19:10:42.196Z,101779.33
2018-07-30T19:13:09.963Z,101775.58
2018-07-30T19:15:37.788Z,101779.31
2018-07-30T19:18:05.642Z,101776.98
2018-07-30T19:20:33.351Z,101776.77
2018-07-30T19:23:01.068Z,101778.91
2018-07-30T19:25:28.879Z,101775.26
2018-07-30T19:27:56.622Z,101779.46
2018-07-30T19:30:24.352Z,101782.09
2018-07-30T19:32:52.088Z,101785.13
2018-07-30T19:35:19.835Z,101783.44
2018-07-30T19:37:47.584Z,101787.38
2018-07-30T19:40:15.345Z,101794.65
2018-07-30T19:42:43.153Z,101791.70
2018-07-30T19:45:10.935Z,101797.28
2018-07-30T19:47:38.687Z,101800.70
2018-07-30T19:50:06.676Z,101804.05
2018-07-30T19:52:34.456Z,101806.52
2018-07-30T19:55:02.166Z,101811.08
2018-07-30T19:57:30.016Z,101813.75
2018-07-30T19:59:57.743Z,101810.79
2018-07-30T20:02:25.499Z,101810.77
2018-07-30T20:04:53.278Z,101807.83
2018-07-30T20:07:21.136Z,101810.16
2018-07-30T20:09:48.860Z,101805.97
2018-07-30T20:12:16.692Z,101808.05
2018-07-30T20:14:44.392Z,101806.21
2018-07-30T20:17:12.161Z,101810.85
2018-07-30T20:19:39.944Z,101809.36
2018-07-30T20:22:07.723Z,101810.71
2018-07-30T20:24:35.515Z,101811.19
2018-07-30T20:27:03.394Z,101824.02
2018-07-30T20:29:31.156Z,101815.73
2018-07-30T20:31:58.912Z,101814.86
2018-07-30T20:34:26.692Z,101819.63
2018-07-30T20:36:54.472Z,101820.59
2018-07-30T20:39:22.180Z,101816.43
2018-07-30T20:41:49.944Z,101818.75
2018-07-30T20:44:17.739Z,101813.20
2018-07-30T20:46:45.480Z,101821.05
2018-07-30T20:49:13.222Z,101818.20
2018-07-30T20:51:40.999Z,101820.75
2018-07-30T20:54:08.735Z,101826.51
2018-07-30T20:56:36.476Z,101829.05
2018-07-30T20:59:04.459Z,101831.59
2018-07-30T21:01:32.240Z,101833.27
2018-07-30T21:03:59.979Z,101841.09
2018-07-30T21:06:27.761Z,101837.50
2018-07-30T21:08:55.530Z,101845.91
2018-07-30T21:11:23.471Z,101840.49
2018-07-30T21:13:51.325Z,101833.82
2018-07-30T21:16:19.072Z,101844.77
2018-07-30T21:18:46.802Z,101849.77
2018-07-30T21:21:14.556Z,101855.73
2018-07-30T21:23:42.318Z,101849.83
2018-07-30T21:26:10.050Z,101861.41
2018-07-30T21:28:37.824Z,101861.63
2018-07-30T21:31:05.573Z,101858.80
2018-07-30T21:33:33.298Z,101859.98
2018-07-30T21:36:01.029Z,101865.33
2018-07-30T21:38:28.768Z,101866.86
2018-07-30T21:40:56.512Z,101870.86
2018-07-30T21:43:24.296Z,101866.12
2018-07-30T21:45:52.040Z,101866.81
2018-07-30T21:48:19.796Z,101872.50
2018-07-30T21:50:47.543Z,101869.55
2018-07-30T21:53:15.282Z,101867.06
2018-07-30T21:55:43.128Z,101868.15
2018-07-30T21:58:10.849Z,101873.41
2018-07-30T22:00:38.764Z,101871.89
2018-07-30T22:03:06.512Z,101873.30
2018-07-30T22:05:34.249Z,101875.69
2018-07-30T22:08:02.001Z,101869.66
2018-07-30T22:10:29.779Z,101867.86
2018-07-30T22:12:57.544Z,101865.11
2018-07-30T22:15:25.320Z,101865.70
2018-07-30T22:17:53.036Z,101865.91
2018-07-30T22:20:20.854Z,101865.81
2018-07-30T22:22:48.629Z,101865.55
2018-07-30T22:25:16.409Z,101869.79
2018-07-30T22:27:44.144Z,101869.33
2018-07-30T22:30:11.921Z,101865.98
2018-07-30T22:32:39.688Z,101858.69
2018-07-30T22:35:08.294Z,101862.45
2018-07-30T22:37:36.038Z,101862.17
2018-07-30T22:40:04.313Z,101853.83
2018-07-30T22:42:32.012Z,101857.41
2018-07-30T22:44:59.727Z,101855.40
2018-07-30T22:47:27.460Z,101860.50
2018-07-30T22:49:55.236Z,101857.23
2018-07-30T22:52:22.996Z,101854.74
2018-07-30T22:54:50.704Z,101860.77
2018-07-30T22:57:18.418Z,101856.06
2018-07-30T22:59:46.156Z,101850.41
2018-07-30T23:02:13.884Z,101860.49
2018-07-30T23:04:41.605Z,101859.55
2018-07-30T23:07:09.377Z,101855.41
2018-07-30T23:09:37.091Z,101850.43
2018-07-30T23:12:04.866Z,101849.28
2018-07-30T23:14:32.672Z,101849.88
2018-07-30T23:17:00.449Z,101854.77
2018-07-30T23:19:28.177Z,101848.45
2018-07-30T23:21:55.992Z,101854.02
2018-07-30T23:24:23.723Z,101859.73
2018-07-30T23:26:51.458Z,101855.55
2018-07-30T23:29:19.207Z,101849.58
2018-07-30T23:31:46.914Z,101852.38
2018-07-30T23:34:14.623Z,101852.45
2018-07-30T23:36:42.411Z,101854.75
2018-07-30T23:39:11.192Z,101854.75
2018-07-30T23:41:39.061Z,101855.92
2018-07-30T23:44:06.880Z,101853.79
2018-07-30T23:46:34.641Z,101858.21
2018-07-30T23:49:02.388Z,101857.42
2018-07-30T23:51:30.375Z,101859.16
2018-07-30T23:53:58.133Z,101849.95
2018-07-30T23:56:25.986Z,101854.36
2018-07-30T23:58:53.714Z,101848.52
